sensor_id;sensor_type;location;lat;lon;timestamp;temperature;humidity
79065;DHT22;68469;51.502;7.462;2023-08-20T00:00:20;20.20;99.90
79065;DHT22;68469;51.502;7.462;2023-08-20T00:02:49;20.20;99.90
79065;DHT22;68469;51.502;7.462;2023-08-20T00:05:16;20.20;99.90
79065;DHT22;68469;51.502;7.462;2023-08-20T00:07:42;20.20;99.90
79065;DHT22;68469;51.502;7.462;2023-08-20T00:10:09;20.20;99.90
79065;DHT22;68469;51.502;7.462;2023-08-20T00:12:35;20.20;99.90
79065;DHT22;68469;51.502;7.462;2023-08-20T00:15:02;20.20;99.90
79065;DHT22;68469;51.502;7.462;2023-08-20T00:17:38;20.20;99.90
79065;DHT22;68469;51.502;7.462;2023-08-20T00:20:13;20.20;99.90
79065;DHT22;68469;51.502;7.462;2023-08-20T00:22:42;20.20;99.90
79065;DHT22;68469;51.502;7.462;2023-08-20T00:25:11;20.20;99.90
79065;DHT22;68469;51.502;7.462;2023-08-20T00:27:38;20.20;99.90
79065;DHT22;68469;51.502;7.462;2023-08-20T00:30:04;20.20;99.90
79065;DHT22;68469;51.502;7.462;2023-08-20T00:32:29;20.20;99.90
79065;DHT22;68469;51.502;7.462;2023-08-20T00:34:55;20.20;99.90
79065;DHT22;68469;51.502;7.462;2023-08-20T00:37:21;20.20;99.90
79065;DHT22;68469;51.502;7.462;2023-08-20T00:39:47;20.20;99.90
79065;DHT22;68469;51.502;7.462;2023-08-20T00:42:12;20.20;99.90
79065;DHT22;68469;51.502;7.462;2023-08-20T00:44:41;20.30;99.90
79065;DHT22;68469;51.502;7.462;2023-08-20T00:47:10;20.20;99.90
79065;DHT22;68469;51.502;7.462;2023-08-20T00:49:36;20.20;99.90
79065;DHT22;68469;51.502;7.462;2023-08-20T00:52:03;20.20;99.90
79065;DHT22;68469;51.502;7.462;2023-08-20T00:54:29;20.20;99.90
79065;DHT22;68469;51.502;7.462;2023-08-20T00:56:57;20.20;99.90
79065;DHT22;68469;51.502;7.462;2023-08-20T00:59:24;20.20;99.90
79065;DHT22;68469;51.502;7.462;2023-08-20T01:01:50;20.20;99.90
79065;DHT22;68469;51.502;7.462;2023-08-20T01:04:16;20.20;99.90
79065;DHT22;68469;51.502;7.462;2023-08-20T01:11:59;20.10;99.90
79065;DHT22;68469;51.502;7.462;2023-08-20T01:14:25;20.10;99.90
79065;DHT22;68469;51.502;7.462;2023-08-20T01:19:21;20.10;99.90
79065;DHT22;68469;51.502;7.462;2023-08-20T01:22:30;20.10;99.90
79065;DHT22;68469;51.502;7.462;2023-08-20T01:30:10;20.10;99.90
79065;DHT22;68469;51.502;7.462;2023-08-20T01:32:37;20.10;99.90
79065;DHT22;68469;51.502;7.462;2023-08-20T01:35:03;20.00;99.90
79065;DHT22;68469;51.502;7.462;2023-08-20T01:37:29;20.00;99.90
79065;DHT22;68469;51.502;7.462;2023-08-20T01:39:55;20.00;99.90
79065;DHT22;68469;51.502;7.462;2023-08-20T01:42:20;20.00;99.90
79065;DHT22;68469;51.502;7.462;2023-08-20T01:44:46;20.00;99.90
79065;DHT22;68469;51.502;7.462;2023-08-20T01:47:11;20.00;99.90
79065;DHT22;68469;51.502;7.462;2023-08-20T01:49:37;20.00;99.90
79065;DHT22;68469;51.502;7.462;2023-08-20T01:52:03;20.00;99.90
79065;DHT22;68469;51.502;7.462;2023-08-20T01:54:29;20.00;99.90
79065;DHT22;68469;51.502;7.462;2023-08-20T01:56:54;19.90;99.90
79065;DHT22;68469;51.502;7.462;2023-08-20T01:59:21;19.90;99.90
79065;DHT22;68469;51.502;7.462;2023-08-20T02:01:48;19.90;99.90
79065;DHT22;68469;51.502;7.462;2023-08-20T02:04:13;19.90;99.90
79065;DHT22;68469;51.502;7.462;2023-08-20T02:06:39;19.90;99.90
79065;DHT22;68469;51.502;7.462;2023-08-20T02:09:04;19.90;99.90
79065;DHT22;68469;51.502;7.462;2023-08-20T02:11:30;19.80;99.90
79065;DHT22;68469;51.502;7.462;2023-08-20T02:13:58;19.80;99.90
79065;DHT22;68469;51.502;7.462;2023-08-20T02:16:24;19.80;99.90
79065;DHT22;68469;51.502;7.462;2023-08-20T02:18:49;19.80;99.90
79065;DHT22;68469;51.502;7.462;2023-08-20T02:21:15;19.80;99.90
79065;DHT22;68469;51.502;7.462;2023-08-20T02:23:40;19.80;99.90
79065;DHT22;68469;51.502;7.462;2023-08-20T02:26:06;19.80;99.90
79065;DHT22;68469;51.502;7.462;2023-08-20T02:28:31;19.90;99.90
79065;DHT22;68469;51.502;7.462;2023-08-20T02:30:57;19.90;99.90
79065;DHT22;68469;51.502;7.462;2023-08-20T02:33:22;19.80;99.90
79065;DHT22;68469;51.502;7.462;2023-08-20T02:35:48;19.80;99.90
79065;DHT22;68469;51.502;7.462;2023-08-20T02:38:14;19.80;99.90
79065;DHT22;68469;51.502;7.462;2023-08-20T02:40:43;19.80;99.90
79065;DHT22;68469;51.502;7.462;2023-08-20T02:43:09;19.80;99.90
79065;DHT22;68469;51.502;7.462;2023-08-20T02:45:40;19.80;99.90
79065;DHT22;68469;51.502;7.462;2023-08-20T02:48:06;19.80;99.90
79065;DHT22;68469;51.502;7.462;2023-08-20T02:50:32;19.80;99.90
79065;DHT22;68469;51.502;7.462;2023-08-20T02:52:58;19.80;99.90
79065;DHT22;68469;51.502;7.462;2023-08-20T02:55:23;19.70;99.90
79065;DHT22;68469;51.502;7.462;2023-08-20T02:57:49;19.70;99.90
79065;DHT22;68469;51.502;7.462;2023-08-20T03:00:14;19.70;99.90
79065;DHT22;68469;51.502;7.462;2023-08-20T03:02:41;19.70;99.90
79065;DHT22;68469;51.502;7.462;2023-08-20T03:05:08;19.70;99.90
79065;DHT22;68469;51.502;7.462;2023-08-20T03:07:34;19.80;99.90
79065;DHT22;68469;51.502;7.462;2023-08-20T03:10:00;19.80;99.90
79065;DHT22;68469;51.502;7.462;2023-08-20T03:12:25;19.70;99.90
79065;DHT22;68469;51.502;7.462;2023-08-20T03:14:51;19.80;99.90
79065;DHT22;68469;51.502;7.462;2023-08-20T03:17:16;19.80;99.90
79065;DHT22;68469;51.502;7.462;2023-08-20T03:19:55;19.80;99.90
79065;DHT22;68469;51.502;7.462;2023-08-20T03:22:21;19.80;99.90
79065;DHT22;68469;51.502;7.462;2023-08-20T03:24:47;19.70;99.90
79065;DHT22;68469;51.502;7.462;2023-08-20T03:27:13;19.80;99.90
79065;DHT22;68469;51.502;7.462;2023-08-20T03:29:38;19.70;99.90
79065;DHT22;68469;51.502;7.462;2023-08-20T03:32:04;19.70;99.90
79065;DHT22;68469;51.502;7.462;2023-08-20T03:34:30;19.70;99.90
79065;DHT22;68469;51.502;7.462;2023-08-20T03:36:55;19.80;99.90
79065;DHT22;68469;51.502;7.462;2023-08-20T03:39:21;19.80;99.90
79065;DHT22;68469;51.502;7.462;2023-08-20T03:41:47;19.70;99.90
79065;DHT22;68469;51.502;7.462;2023-08-20T03:44:12;19.70;99.90
79065;DHT22;68469;51.502;7.462;2023-08-20T03:46:38;19.60;99.90
79065;DHT22;68469;51.502;7.462;2023-08-20T03:49:03;19.60;99.90
79065;DHT22;68469;51.502;7.462;2023-08-20T03:51:29;19.60;99.90
79065;DHT22;68469;51.502;7.462;2023-08-20T03:53:55;19.60;99.90
79065;DHT22;68469;51.502;7.462;2023-08-20T03:56:20;19.60;99.90
79065;DHT22;68469;51.502;7.462;2023-08-20T03:58:46;19.50;99.90
79065;DHT22;68469;51.502;7.462;2023-08-20T04:01:11;19.60;99.90
79065;DHT22;68469;51.502;7.462;2023-08-20T04:03:37;19.50;99.90
79065;DHT22;68469;51.502;7.462;2023-08-20T04:06:02;19.60;99.90
79065;DHT22;68469;51.502;7.462;2023-08-20T04:08:29;19.60;99.90
79065;DHT22;68469;51.502;7.462;2023-08-20T04:10:54;19.60;99.90
79065;DHT22;68469;51.502;7.462;2023-08-20T04:13:20;19.60;99.90
79065;DHT22;68469;51.502;7.462;2023-08-20T04:15:46;19.60;99.90
79065;DHT22;68469;51.502;7.462;2023-08-20T04:18:12;19.60;99.90
79065;DHT22;68469;51.502;7.462;2023-08-20T04:20:37;19.60;99.90
79065;DHT22;68469;51.502;7.462;2023-08-20T04:23:03;19.60;99.90
79065;DHT22;68469;51.502;7.462;2023-08-20T04:25:29;19.70;99.90
79065;DHT22;68469;51.502;7.462;2023-08-20T04:27:55;19.70;99.90
79065;DHT22;68469;51.502;7.462;2023-08-20T04:30:20;19.70;99.90
79065;DHT22;68469;51.502;7.462;2023-08-20T04:32:46;19.70;99.90
79065;DHT22;68469;51.502;7.462;2023-08-20T04:35:12;19.80;99.90
79065;DHT22;68469;51.502;7.462;2023-08-20T04:37:37;19.80;99.90
79065;DHT22;68469;51.502;7.462;2023-08-20T04:40:03;19.80;99.90
79065;DHT22;68469;51.502;7.462;2023-08-20T04:42:33;19.80;99.90
79065;DHT22;68469;51.502;7.462;2023-08-20T04:44:58;19.80;99.90
79065;DHT22;68469;51.502;7.462;2023-08-20T04:47:24;19.80;99.90
79065;DHT22;68469;51.502;7.462;2023-08-20T04:49:50;19.90;99.90
79065;DHT22;68469;51.502;7.462;2023-08-20T04:52:16;19.90;99.90
79065;DHT22;68469;51.502;7.462;2023-08-20T04:54:41;19.90;99.90
79065;DHT22;68469;51.502;7.462;2023-08-20T04:57:07;19.90;99.90
79065;DHT22;68469;51.502;7.462;2023-08-20T04:59:32;19.90;99.90
79065;DHT22;68469;51.502;7.462;2023-08-20T05:01:58;20.00;99.90
79065;DHT22;68469;51.502;7.462;2023-08-20T05:04:24;20.00;99.90
79065;DHT22;68469;51.502;7.462;2023-08-20T05:06:49;20.00;99.90
79065;DHT22;68469;51.502;7.462;2023-08-20T05:09:15;20.00;99.90
79065;DHT22;68469;51.502;7.462;2023-08-20T05:11:41;20.10;99.90
79065;DHT22;68469;51.502;7.462;2023-08-20T05:14:07;20.10;99.90
79065;DHT22;68469;51.502;7.462;2023-08-20T05:16:33;20.00;99.90
79065;DHT22;68469;51.502;7.462;2023-08-20T05:18:58;20.00;99.90
79065;DHT22;68469;51.502;7.462;2023-08-20T05:21:24;20.00;99.90
79065;DHT22;68469;51.502;7.462;2023-08-20T05:23:50;20.10;99.90
79065;DHT22;68469;51.502;7.462;2023-08-20T05:26:15;20.10;99.90
79065;DHT22;68469;51.502;7.462;2023-08-20T05:28:41;20.00;99.90
79065;DHT22;68469;51.502;7.462;2023-08-20T05:31:07;20.10;99.90
79065;DHT22;68469;51.502;7.462;2023-08-20T05:33:32;20.10;99.90
79065;DHT22;68469;51.502;7.462;2023-08-20T05:35:59;20.10;99.90
79065;DHT22;68469;51.502;7.462;2023-08-20T05:38:25;20.10;99.90
79065;DHT22;68469;51.502;7.462;2023-08-20T05:40:51;20.10;99.90
79065;DHT22;68469;51.502;7.462;2023-08-20T05:43:16;20.10;99.90
79065;DHT22;68469;51.502;7.462;2023-08-20T05:45:42;20.20;99.90
79065;DHT22;68469;51.502;7.462;2023-08-20T05:48:07;20.20;99.90
79065;DHT22;68469;51.502;7.462;2023-08-20T05:50:33;20.20;99.90
79065;DHT22;68469;51.502;7.462;2023-08-20T05:53:00;20.20;99.90
79065;DHT22;68469;51.502;7.462;2023-08-20T05:55:25;20.20;99.90
79065;DHT22;68469;51.502;7.462;2023-08-20T05:57:51;20.20;99.90
79065;DHT22;68469;51.502;7.462;2023-08-20T06:00:16;20.20;99.90
79065;DHT22;68469;51.502;7.462;2023-08-20T06:02:43;20.20;99.90
79065;DHT22;68469;51.502;7.462;2023-08-20T06:05:09;20.30;99.90
79065;DHT22;68469;51.502;7.462;2023-08-20T06:07:35;20.40;99.90
79065;DHT22;68469;51.502;7.462;2023-08-20T06:10:01;20.50;99.90
79065;DHT22;68469;51.502;7.462;2023-08-20T06:12:26;20.60;99.90
79065;DHT22;68469;51.502;7.462;2023-08-20T06:14:52;20.80;99.90
79065;DHT22;68469;51.502;7.462;2023-08-20T06:17:18;20.90;99.90
79065;DHT22;68469;51.502;7.462;2023-08-20T06:19:44;21.00;99.90
79065;DHT22;68469;51.502;7.462;2023-08-20T06:22:10;21.20;99.90
79065;DHT22;68469;51.502;7.462;2023-08-20T06:24:35;21.30;99.90
79065;DHT22;68469;51.502;7.462;2023-08-20T06:27:01;21.40;99.90
79065;DHT22;68469;51.502;7.462;2023-08-20T06:29:27;21.40;99.90
79065;DHT22;68469;51.502;7.462;2023-08-20T06:31:52;21.50;99.90
79065;DHT22;68469;51.502;7.462;2023-08-20T06:34:18;21.60;99.90
79065;DHT22;68469;51.502;7.462;2023-08-20T06:36:44;21.90;99.90
79065;DHT22;68469;51.502;7.462;2023-08-20T06:39:09;22.10;99.90
79065;DHT22;68469;51.502;7.462;2023-08-20T06:41:36;22.30;99.90
79065;DHT22;68469;51.502;7.462;2023-08-20T06:44:02;22.60;99.90
79065;DHT22;68469;51.502;7.462;2023-08-20T06:46:28;22.80;99.90
79065;DHT22;68469;51.502;7.462;2023-08-20T06:48:54;23.00;99.90
79065;DHT22;68469;51.502;7.462;2023-08-20T06:51:20;23.10;99.90
79065;DHT22;68469;51.502;7.462;2023-08-20T06:53:49;23.10;99.90
79065;DHT22;68469;51.502;7.462;2023-08-20T06:56:15;23.40;99.90
79065;DHT22;68469;51.502;7.462;2023-08-20T06:58:42;23.50;99.90
79065;DHT22;68469;51.502;7.462;2023-08-20T07:01:08;23.70;99.90
79065;DHT22;68469;51.502;7.462;2023-08-20T07:03:41;23.90;99.90
79065;DHT22;68469;51.502;7.462;2023-08-20T07:06:09;24.10;99.90
79065;DHT22;68469;51.502;7.462;2023-08-20T07:08:35;24.20;99.90
79065;DHT22;68469;51.502;7.462;2023-08-20T07:11:02;24.30;99.90
79065;DHT22;68469;51.502;7.462;2023-08-20T07:13:28;24.40;99.90
79065;DHT22;68469;51.502;7.462;2023-08-20T07:15:54;24.60;99.90
79065;DHT22;68469;51.502;7.462;2023-08-20T07:18:19;24.70;99.90
79065;DHT22;68469;51.502;7.462;2023-08-20T07:20:45;24.90;99.90
79065;DHT22;68469;51.502;7.462;2023-08-20T07:23:11;25.10;99.20
79065;DHT22;68469;51.502;7.462;2023-08-20T07:25:38;25.30;98.10
79065;DHT22;68469;51.502;7.462;2023-08-20T07:28:07;25.30;96.00
79065;DHT22;68469;51.502;7.462;2023-08-20T07:30:34;25.40;95.10
79065;DHT22;68469;51.502;7.462;2023-08-20T07:32:59;25.50;95.20
79065;DHT22;68469;51.502;7.462;2023-08-20T07:35:25;25.70;94.90
79065;DHT22;68469;51.502;7.462;2023-08-20T07:37:51;25.80;93.20
79065;DHT22;68469;51.502;7.462;2023-08-20T07:40:16;25.80;93.00
79065;DHT22;68469;51.502;7.462;2023-08-20T07:42:42;26.00;93.30
79065;DHT22;68469;51.502;7.462;2023-08-20T07:45:09;26.10;92.10
79065;DHT22;68469;51.502;7.462;2023-08-20T07:47:38;26.10;91.00
79065;DHT22;68469;51.502;7.462;2023-08-20T07:50:05;26.10;90.70
79065;DHT22;68469;51.502;7.462;2023-08-20T07:52:31;26.30;91.20
79065;DHT22;68469;51.502;7.462;2023-08-20T07:54:57;26.30;90.60
79065;DHT22;68469;51.502;7.462;2023-08-20T07:57:23;26.50;90.60
79065;DHT22;68469;51.502;7.462;2023-08-20T07:59:52;26.60;91.10
79065;DHT22;68469;51.502;7.462;2023-08-20T08:02:17;26.70;89.90
79065;DHT22;68469;51.502;7.462;2023-08-20T08:04:43;26.70;88.10
79065;DHT22;68469;51.502;7.462;2023-08-20T08:07:10;26.80;87.80
79065;DHT22;68469;51.502;7.462;2023-08-20T08:09:36;26.90;88.20
79065;DHT22;68469;51.502;7.462;2023-08-20T08:12:02;26.90;85.70
79065;DHT22;68469;51.502;7.462;2023-08-20T08:14:28;27.00;85.30
79065;DHT22;68469;51.502;7.462;2023-08-20T08:16:54;27.10;85.40
79065;DHT22;68469;51.502;7.462;2023-08-20T08:19:20;27.20;85.00
79065;DHT22;68469;51.502;7.462;2023-08-20T08:21:46;27.30;82.50
79065;DHT22;68469;51.502;7.462;2023-08-20T08:24:13;27.50;82.70
79065;DHT22;68469;51.502;7.462;2023-08-20T08:26:39;27.60;80.10
79065;DHT22;68469;51.502;7.462;2023-08-20T08:29:05;27.70;79.90
79065;DHT22;68469;51.502;7.462;2023-08-20T08:31:32;27.70;78.80
79065;DHT22;68469;51.502;7.462;2023-08-20T08:33:58;27.80;76.40
79065;DHT22;68469;51.502;7.462;2023-08-20T08:36:24;27.80;77.10
79065;DHT22;68469;51.502;7.462;2023-08-20T08:38:53;27.80;76.20
79065;DHT22;68469;51.502;7.462;2023-08-20T08:41:21;27.90;75.30
79065;DHT22;68469;51.502;7.462;2023-08-20T08:43:49;27.90;75.60
79065;DHT22;68469;51.502;7.462;2023-08-20T08:46:15;28.00;74.60
79065;DHT22;68469;51.502;7.462;2023-08-20T08:48:42;28.00;72.50
79065;DHT22;68469;51.502;7.462;2023-08-20T08:51:08;28.20;72.90
79065;DHT22;68469;51.502;7.462;2023-08-20T08:53:35;28.30;72.90
79065;DHT22;68469;51.502;7.462;2023-08-20T08:56:01;28.30;70.60
79065;DHT22;68469;51.502;7.462;2023-08-20T08:58:28;28.40;71.10
79065;DHT22;68469;51.502;7.462;2023-08-20T09:00:54;28.60;68.70
79065;DHT22;68469;51.502;7.462;2023-08-20T09:03:20;28.80;68.70
79065;DHT22;68469;51.502;7.462;2023-08-20T09:05:50;29.00;66.60
79065;DHT22;68469;51.502;7.462;2023-08-20T09:08:26;29.10;64.00
79065;DHT22;68469;51.502;7.462;2023-08-20T09:10:53;29.10;63.40
79065;DHT22;68469;51.502;7.462;2023-08-20T09:13:32;29.40;63.30
79065;DHT22;68469;51.502;7.462;2023-08-20T09:15:58;29.60;63.80
79065;DHT22;68469;51.502;7.462;2023-08-20T09:18:23;29.80;63.30
79065;DHT22;68469;51.502;7.462;2023-08-20T09:20:49;30.10;63.80
79065;DHT22;68469;51.502;7.462;2023-08-20T09:23:15;30.20;61.90
79065;DHT22;68469;51.502;7.462;2023-08-20T09:25:42;30.40;61.20
79065;DHT22;68469;51.502;7.462;2023-08-20T09:28:08;30.40;59.90
79065;DHT22;68469;51.502;7.462;2023-08-20T09:30:34;30.60;60.40
79065;DHT22;68469;51.502;7.462;2023-08-20T09:33:17;30.80;59.30
79065;DHT22;68469;51.502;7.462;2023-08-20T09:35:50;30.80;58.90
79065;DHT22;68469;51.502;7.462;2023-08-20T09:38:20;30.90;58.50
79065;DHT22;68469;51.502;7.462;2023-08-20T09:40:50;31.20;59.20
79065;DHT22;68469;51.502;7.462;2023-08-20T09:43:18;31.40;58.00
79065;DHT22;68469;51.502;7.462;2023-08-20T09:45:44;31.60;59.90
79065;DHT22;68469;51.502;7.462;2023-08-20T09:48:15;31.80;59.00
79065;DHT22;68469;51.502;7.462;2023-08-20T09:50:43;31.80;57.80
79065;DHT22;68469;51.502;7.462;2023-08-20T09:53:27;31.70;57.50
79065;DHT22;68469;51.502;7.462;2023-08-20T09:56:15;31.30;58.90
79065;DHT22;68469;51.502;7.462;2023-08-20T09:58:44;30.90;60.90
79065;DHT22;68469;51.502;7.462;2023-08-20T10:01:10;31.10;60.50
79065;DHT22;68469;51.502;7.462;2023-08-20T10:03:37;31.50;59.30
79065;DHT22;68469;51.502;7.462;2023-08-20T10:06:03;31.80;60.00
79065;DHT22;68469;51.502;7.462;2023-08-20T10:08:29;32.00;59.10
79065;DHT22;68469;51.502;7.462;2023-08-20T10:10:55;31.90;58.30
79065;DHT22;68469;51.502;7.462;2023-08-20T10:13:21;32.20;58.60
79065;DHT22;68469;51.502;7.462;2023-08-20T10:15:46;32.50;57.80
79065;DHT22;68469;51.502;7.462;2023-08-20T10:18:12;32.50;57.70
79065;DHT22;68469;51.502;7.462;2023-08-20T10:20:39;32.20;57.50
79065;DHT22;68469;51.502;7.462;2023-08-20T10:23:06;31.80;57.60
79065;DHT22;68469;51.502;7.462;2023-08-20T10:25:40;32.30;57.90
79065;DHT22;68469;51.502;7.462;2023-08-20T10:28:24;32.80;58.20
79065;DHT22;68469;51.502;7.462;2023-08-20T10:31:13;33.60;57.10
79065;DHT22;68469;51.502;7.462;2023-08-20T10:33:55;34.50;54.70
79065;DHT22;68469;51.502;7.462;2023-08-20T10:36:22;35.00;52.60
79065;DHT22;68469;51.502;7.462;2023-08-20T10:38:51;34.80;52.80
79065;DHT22;68469;51.502;7.462;2023-08-20T10:41:25;34.30;52.10
79065;DHT22;68469;51.502;7.462;2023-08-20T10:43:51;33.70;53.70
79065;DHT22;68469;51.502;7.462;2023-08-20T10:46:22;33.00;55.20
79065;DHT22;68469;51.502;7.462;2023-08-20T10:48:52;32.20;55.40
79065;DHT22;68469;51.502;7.462;2023-08-20T10:51:25;31.70;57.00
79065;DHT22;68469;51.502;7.462;2023-08-20T10:56:40;33.30;54.30
79065;DHT22;68469;51.502;7.462;2023-08-20T10:59:09;33.70;54.10
79065;DHT22;68469;51.502;7.462;2023-08-20T11:01:35;34.20;52.60
79065;DHT22;68469;51.502;7.462;2023-08-20T11:04:02;34.60;52.50
79065;DHT22;68469;51.502;7.462;2023-08-20T11:06:32;35.20;51.20
79065;DHT22;68469;51.502;7.462;2023-08-20T11:08:58;35.90;50.30
79065;DHT22;68469;51.502;7.462;2023-08-20T11:11:24;37.20;49.40
79065;DHT22;68469;51.502;7.462;2023-08-20T11:13:50;37.00;47.40
79065;DHT22;68469;51.502;7.462;2023-08-20T11:16:15;37.70;46.50
79065;DHT22;68469;51.502;7.462;2023-08-20T11:18:41;39.20;45.50
79065;DHT22;68469;51.502;7.462;2023-08-20T11:21:08;40.80;42.10
79065;DHT22;68469;51.502;7.462;2023-08-20T11:23:34;41.80;41.20
79065;DHT22;68469;51.502;7.462;2023-08-20T11:26:00;42.80;37.90
79065;DHT22;68469;51.502;7.462;2023-08-20T11:28:26;43.80;36.10
79065;DHT22;68469;51.502;7.462;2023-08-20T11:30:53;44.60;36.50
79065;DHT22;68469;51.502;7.462;2023-08-20T11:33:20;45.20;35.70
79065;DHT22;68469;51.502;7.462;2023-08-20T11:35:47;45.90;34.50
79065;DHT22;68469;51.502;7.462;2023-08-20T11:38:13;45.80;34.10
79065;DHT22;68469;51.502;7.462;2023-08-20T11:40:39;46.00;33.70
79065;DHT22;68469;51.502;7.462;2023-08-20T11:43:05;46.50;32.90
79065;DHT22;68469;51.502;7.462;2023-08-20T11:45:31;46.70;32.70
79065;DHT22;68469;51.502;7.462;2023-08-20T11:47:58;47.00;32.70
79065;DHT22;68469;51.502;7.462;2023-08-20T11:50:24;47.20;31.30
79065;DHT22;68469;51.502;7.462;2023-08-20T11:52:52;46.40;30.90
79065;DHT22;68469;51.502;7.462;2023-08-20T11:55:24;45.10;34.00
79065;DHT22;68469;51.502;7.462;2023-08-20T11:57:52;44.30;34.60
79065;DHT22;68469;51.502;7.462;2023-08-20T12:00:29;43.30;34.60
79065;DHT22;68469;51.502;7.462;2023-08-20T12:02:55;41.90;35.90
79065;DHT22;68469;51.502;7.462;2023-08-20T12:05:25;40.20;38.10
79065;DHT22;68469;51.502;7.462;2023-08-20T12:07:55;38.50;41.10
79065;DHT22;68469;51.502;7.462;2023-08-20T12:10:22;37.00;43.70
79065;DHT22;68469;51.502;7.462;2023-08-20T12:12:49;35.80;46.30
79065;DHT22;68469;51.502;7.462;2023-08-20T12:15:14;36.80;45.90
79065;DHT22;68469;51.502;7.462;2023-08-20T12:17:40;38.40;44.70
79065;DHT22;68469;51.502;7.462;2023-08-20T12:20:06;39.90;41.80
79065;DHT22;68469;51.502;7.462;2023-08-20T12:22:38;41.20;39.80
79065;DHT22;68469;51.502;7.462;2023-08-20T12:25:04;42.00;38.40
79065;DHT22;68469;51.502;7.462;2023-08-20T12:27:30;42.40;37.00
79065;DHT22;68469;51.502;7.462;2023-08-20T12:29:55;41.30;38.40
79065;DHT22;68469;51.502;7.462;2023-08-20T12:32:21;40.20;38.90
79065;DHT22;68469;51.502;7.462;2023-08-20T12:34:46;38.70;41.90
79065;DHT22;68469;51.502;7.462;2023-08-20T12:37:12;37.40;43.90
79065;DHT22;68469;51.502;7.462;2023-08-20T12:39:37;36.00;46.00
79065;DHT22;68469;51.502;7.462;2023-08-20T12:42:03;34.80;48.80
79065;DHT22;68469;51.502;7.462;2023-08-20T12:44:29;33.80;50.60
79065;DHT22;68469;51.502;7.462;2023-08-20T12:46:54;33.30;52.50
79065;DHT22;68469;51.502;7.462;2023-08-20T12:49:20;32.80;53.70
79065;DHT22;68469;51.502;7.462;2023-08-20T12:51:46;32.40;54.30
79065;DHT22;68469;51.502;7.462;2023-08-20T12:54:11;32.00;56.30
79065;DHT22;68469;51.502;7.462;2023-08-20T12:56:37;31.60;56.30
79065;DHT22;68469;51.502;7.462;2023-08-20T12:59:03;31.40;56.90
79065;DHT22;68469;51.502;7.462;2023-08-20T13:01:28;31.20;56.60
79065;DHT22;68469;51.502;7.462;2023-08-20T13:03:54;31.10;57.10
79065;DHT22;68469;51.502;7.462;2023-08-20T13:06:20;30.90;57.60
79065;DHT22;68469;51.502;7.462;2023-08-20T13:08:46;30.80;58.60
79065;DHT22;68469;51.502;7.462;2023-08-20T13:11:14;30.60;59.90
79065;DHT22;68469;51.502;7.462;2023-08-20T13:13:42;30.40;60.00
79065;DHT22;68469;51.502;7.462;2023-08-20T13:16:08;30.20;57.50
79065;DHT22;68469;51.502;7.462;2023-08-20T13:18:34;30.00;58.10
79065;DHT22;68469;51.502;7.462;2023-08-20T13:21:01;29.80;60.00
79065;DHT22;68469;51.502;7.462;2023-08-20T13:23:26;29.70;60.80
79065;DHT22;68469;51.502;7.462;2023-08-20T13:25:52;29.60;61.20
79065;DHT22;68469;51.502;7.462;2023-08-20T13:28:18;29.50;60.90
79065;DHT22;68469;51.502;7.462;2023-08-20T13:30:43;29.40;62.00
79065;DHT22;68469;51.502;7.462;2023-08-20T13:33:09;29.30;63.40
79065;DHT22;68469;51.502;7.462;2023-08-20T13:35:35;29.30;63.00
79065;DHT22;68469;51.502;7.462;2023-08-20T13:38:00;29.20;63.70
79065;DHT22;68469;51.502;7.462;2023-08-20T13:40:26;29.10;63.80
79065;DHT22;68469;51.502;7.462;2023-08-20T13:42:51;29.10;63.10
79065;DHT22;68469;51.502;7.462;2023-08-20T13:45:17;29.00;62.30
79065;DHT22;68469;51.502;7.462;2023-08-20T13:47:43;28.90;63.20
79065;DHT22;68469;51.502;7.462;2023-08-20T13:50:10;28.80;65.00
79065;DHT22;68469;51.502;7.462;2023-08-20T13:52:35;28.60;65.20
79065;DHT22;68469;51.502;7.462;2023-08-20T13:55:01;28.60;63.60
79065;DHT22;68469;51.502;7.462;2023-08-20T13:57:27;28.50;64.30
79065;DHT22;68469;51.502;7.462;2023-08-20T13:59:53;28.40;65.70
79065;DHT22;68469;51.502;7.462;2023-08-20T14:02:18;28.40;64.40
79065;DHT22;68469;51.502;7.462;2023-08-20T14:04:44;28.30;65.00
79065;DHT22;68469;51.502;7.462;2023-08-20T14:07:10;28.20;64.30
79065;DHT22;68469;51.502;7.462;2023-08-20T14:09:35;28.20;65.20
79065;DHT22;68469;51.502;7.462;2023-08-20T14:12:01;28.10;64.50
79065;DHT22;68469;51.502;7.462;2023-08-20T14:14:27;28.00;66.00
79065;DHT22;68469;51.502;7.462;2023-08-20T14:16:52;27.90;65.30
79065;DHT22;68469;51.502;7.462;2023-08-20T14:19:18;27.80;66.70
79065;DHT22;68469;51.502;7.462;2023-08-20T14:21:44;27.70;66.70
79065;DHT22;68469;51.502;7.462;2023-08-20T14:24:09;27.70;68.60
79065;DHT22;68469;51.502;7.462;2023-08-20T14:26:35;27.70;67.40
79065;DHT22;68469;51.502;7.462;2023-08-20T14:29:01;27.70;68.60
79065;DHT22;68469;51.502;7.462;2023-08-20T14:31:27;27.70;69.20
79065;DHT22;68469;51.502;7.462;2023-08-20T14:33:52;27.60;68.80
79065;DHT22;68469;51.502;7.462;2023-08-20T14:36:18;27.60;67.10
79065;DHT22;68469;51.502;7.462;2023-08-20T14:38:44;27.60;66.80
79065;DHT22;68469;51.502;7.462;2023-08-20T14:41:10;27.50;67.20
79065;DHT22;68469;51.502;7.462;2023-08-20T14:43:35;27.40;67.40
79065;DHT22;68469;51.502;7.462;2023-08-20T14:46:01;27.40;68.60
79065;DHT22;68469;51.502;7.462;2023-08-20T14:48:26;27.30;69.90
79065;DHT22;68469;51.502;7.462;2023-08-20T14:50:53;27.40;68.90
79065;DHT22;68469;51.502;7.462;2023-08-20T14:53:19;27.40;67.70
79065;DHT22;68469;51.502;7.462;2023-08-20T14:55:45;27.50;68.40
79065;DHT22;68469;51.502;7.462;2023-08-20T14:58:11;27.60;67.70
79065;DHT22;68469;51.502;7.462;2023-08-20T15:00:37;27.60;67.90
79065;DHT22;68469;51.502;7.462;2023-08-20T15:03:03;27.70;66.50
79065;DHT22;68469;51.502;7.462;2023-08-20T15:05:29;27.70;65.80
79065;DHT22;68469;51.502;7.462;2023-08-20T15:07:55;27.60;66.40
79065;DHT22;68469;51.502;7.462;2023-08-20T15:10:20;27.60;66.40
79065;DHT22;68469;51.502;7.462;2023-08-20T15:12:46;27.60;66.90
79065;DHT22;68469;51.502;7.462;2023-08-20T15:15:12;27.50;66.70
79065;DHT22;68469;51.502;7.462;2023-08-20T15:17:38;27.50;66.80
79065;DHT22;68469;51.502;7.462;2023-08-20T15:20:04;27.40;67.10
79065;DHT22;68469;51.502;7.462;2023-08-20T15:22:36;27.40;67.70
79065;DHT22;68469;51.502;7.462;2023-08-20T15:25:02;27.40;66.70
79065;DHT22;68469;51.502;7.462;2023-08-20T15:27:36;27.30;66.50
79065;DHT22;68469;51.502;7.462;2023-08-20T15:30:02;27.30;66.90
79065;DHT22;68469;51.502;7.462;2023-08-20T15:32:29;27.20;66.30
79065;DHT22;68469;51.502;7.462;2023-08-20T15:34:55;27.10;65.10
79065;DHT22;68469;51.502;7.462;2023-08-20T15:37:21;27.00;65.80
79065;DHT22;68469;51.502;7.462;2023-08-20T15:39:47;27.00;65.80
79065;DHT22;68469;51.502;7.462;2023-08-20T15:42:12;26.90;66.30